This is the latest recevied weather packets stored in our database for station/object LRBS. If no packets are shown the sender has not sent any weather packets the latest 10 day(s).
| Time | Temp. | Humidity | Pressure | Rain* | Wind** | Luminosity | Snow |
|---|---|---|---|---|---|---|---|
| 1777732394 | 12.22° C | 58% | 1022 hPa | - | - | - | - |
| 1777731495 | 12.22° C | 58% | 1022 hPa | - | - | - | - |
| 1777730595 | 12.22° C | 58% | 1022 hPa | - | - | - | - |
| 1777729694 | 12.22° C | 58% | 1022 hPa | - | - | - | - |
| 1777728794 | 12.22° C | 58% | 1022 hPa | - | - | - | - |
| 1777727894 | 12.22° C | 54% | 1022 hPa | - | - | - | - |
| 1777726995 | 12.22° C | 54% | 1022 hPa | - | - | - | - |
| 1777726095 | 12.78° C | 55% | 1022 hPa | - | - | - | - |
| 1777725194 | 12.78° C | 55% | 1022 hPa | - | - | - | - |
| 1777724294 | 11.11° C | 62% | 1022 hPa | - | - | - | - |
| 1777723402 | 11.11° C | 62% | 1022 hPa | - | - | - | - |
| 1777722494 | 11.11° C | 58% | 1023 hPa | - | - | - | - |
| 1777721594 | 11.11° C | 58% | 1023 hPa | - | - | - | - |
| 1777720694 | 12.78° C | 51% | 1023 hPa | - | - | - | - |
| 1777719794 | 12.78° C | 51% | 1023 hPa | - | - | - | - |
| 1777718894 | 10° C | 67% | 1023 hPa | - | - | - | - |
| 1777717994 | 10° C | 67% | 1023 hPa | - | - | - | - |
| 1777717091 | 12.22° C | 54% | 1022 hPa | - | - | - | - |
| 1777716194 | 12.22° C | 54% | 1022 hPa | - | - | - | - |
| 1777715294 | 12.78° C | 55% | 1022 hPa | - | - | - | - |
| 1777714470 | 12.78° C | 55% | - | - | - | - | - |
| 1777713494 | 12.78° C | 59% | 1023 hPa | - | - | - | - |
| 1777712594 | 12.78° C | 59% | 1023 hPa | - | - | - | - |
| 1777711701 | 12.78° C | 51% | 1023 hPa | - | - | - | - |
| 1777710794 | 12.78° C | 51% | 1023 hPa | - | - | - | - |
* Rain since midnight (hover to see other rain measurements)
** Current wind speed in m/s (hover to see current wind gust speed)